Time;durP1;ratioP1;P1;durP2;ratioP2;P2;SDS_P1;SDS_P2;PMS_P1;PMS_P2;Temp;Humidity;BMP_temperature;BMP_pressure;BME280_temperature;BME280_humidity;BME280_pressure;Samples;Min_cycle;Max_cycle;Signal;HPM_P1;HPM_P2
2023/06/18 03:16:40;;;;;;;7.63;2.67;;;18.10;58.70;;;;;;6180787;22;88972;-68
2023/06/18 03:19:06;;;;;;;6.07;2.83;;;18.20;60.10;;;;;;6216794;22;88434;-69
2023/06/18 03:21:32;;;;;;;5.18;2.80;;;18.20;58.30;;;;;;6217436;22;87395;-68
2023/06/18 03:23:58;;;;;;;5.38;3.50;;;18.20;59.00;;;;;;6218776;22;87249;-68
2023/06/18 03:26:24;;;;;;;6.32;2.80;;;18.20;58.40;;;;;;6217699;22;86685;-69
2023/06/18 03:28:50;;;;;;;5.45;3.05;;;18.30;58.40;;;;;;6218065;22;88271;-69
2023/06/18 03:31:16;;;;;;;5.20;3.25;;;18.20;58.50;;;;;;6217752;22;87909;-68
2023/06/18 03:33:42;;;;;;;5.82;3.17;;;18.20;58.20;;;;;;6217579;22;88606;-68
2023/06/18 03:36:07;;;;;;;5.00;3.25;;;18.30;58.30;;;;;;6218385;22;87237;-68
2023/06/18 03:38:33;;;;;;;7.70;3.33;;;18.30;58.20;;;;;;6217574;22;87992;-68
2023/06/18 03:40:59;;;;;;;5.63;2.75;;;18.30;58.20;;;;;;6218034;22;88330;-68
2023/06/18 03:43:25;;;;;;;4.93;2.65;;;18.30;57.80;;;;;;6218002;22;87354;-69
2023/06/18 03:45:50;;;;;;;9.75;3.00;;;18.30;57.80;;;;;;6218237;22;87368;-69
2023/06/18 03:48:16;;;;;;;6.88;3.28;;;18.30;58.50;;;;;;6217179;22;87814;-69
2023/06/18 03:50:42;;;;;;;6.18;3.05;;;18.40;57.90;;;;;;6218275;22;87629;-69
2023/06/18 03:53:08;;;;;;;10.40;3.38;;;18.50;58.10;;;;;;6218293;22;87483;-69
2023/06/18 03:55:33;;;;;;;5.63;3.28;;;18.50;58.20;;;;;;6218094;22;87347;-69
2023/06/18 03:57:59;;;;;;;6.57;3.05;;;18.70;57.70;;;;;;6217562;22;88642;-69
2023/06/18 04:00:25;;;;;;;6.00;2.90;;;18.70;57.60;;;;;;6216703;22;89113;-68
2023/06/18 04:02:52;;;;;;;5.63;3.10;;;18.90;57.70;;;;;;6216135;22;87053;-68
2023/06/18 04:05:17;;;;;;;7.18;3.50;;;19.10;56.70;;;;;;6217804;22;87194;-68
2023/06/18 04:07:43;;;;;;;5.70;2.80;;;19.30;56.40;;;;;;6217588;22;88022;-68
2023/06/18 04:10:09;;;;;;;5.18;3.03;;;19.50;56.30;;;;;;6216974;22;88245;-68
2023/06/18 04:12:35;;;;;;;5.30;2.78;;;19.90;55.90;;;;;;6190103;22;87355;-68
2023/06/18 04:15:01;;;;;;;5.63;3.15;;;20.00;55.10;;;;;;6218336;22;86610;-69
2023/06/18 04:17:26;;;;;;;7.57;3.40;;;20.20;54.80;;;;;;6215944;22;88241;-69
2023/06/18 04:19:52;;;;;;;9.23;3.30;;;20.30;54.20;;;;;;6216707;22;87724;-68
2023/06/18 04:22:18;;;;;;;7.55;3.63;;;20.40;54.00;;;;;;6217393;22;88314;-69
2023/06/18 04:24:44;;;;;;;7.82;3.30;;;20.40;53.70;;;;;;6218997;22;87395;-68
2023/06/18 04:27:09;;;;;;;7.05;3.38;;;20.50;53.50;;;;;;6218194;22;87217;-68
2023/06/18 04:29:35;;;;;;;5.82;3.05;;;20.70;53.10;;;;;;6218119;22;88393;-69
2023/06/18 04:32:01;;;;;;;6.88;3.33;;;20.90;52.10;;;;;;6218609;22;87522;-69
2023/06/18 04:34:27;;;;;;;5.57;3.28;;;21.10;52.20;;;;;;6218413;22;87427;-68
2023/06/18 04:36:52;;;;;;;6.15;3.25;;;21.30;51.70;;;;;;6218702;22;87673;-69
2023/06/18 04:39:18;;;;;;;4.82;3.17;;;21.50;51.20;;;;;;6218701;22;87721;-69
2023/06/18 04:41:44;;;;;;;6.90;2.95;;;21.80;51.10;;;;;;6219818;22;87227;-69
2023/06/18 04:44:12;;;;;;;7.85;3.53;;;21.90;50.90;;;;;;6219721;22;86930;-69
2023/06/18 04:46:39;;;;;;;6.65;3.30;;;22.10;50.30;;;;;;6218660;22;88987;-69
2023/06/18 04:49:05;;;;;;;5.38;3.45;;;22.30;50.30;;;;;;6219307;22;89701;-68
2023/06/18 04:51:31;;;;;;;7.43;3.55;;;22.40;49.20;;;;;;6219871;22;87391;-67
2023/06/18 04:53:56;;;;;;;6.78;3.30;;;22.70;49.00;;;;;;6220028;22;87481;-68
2023/06/18 04:56:22;;;;;;;5.70;3.95;;;23.00;49.00;;;;;;6219266;22;88179;-68
2023/06/18 04:58:48;;;;;;;6.45;3.60;;;23.60;47.70;;;;;;6219265;22;88019;-68
2023/06/18 05:01:14;;;;;;;5.20;3.72;;;24.20;47.50;;;;;;6220034;22;87367;-68
2023/06/18 05:03:39;;;;;;;5.25;3.17;;;24.80;46.40;;;;;;6220540;22;86330;-69
2023/06/18 05:06:05;;;;;;;11.27;3.40;;;25.30;46.10;;;;;;6219367;22;87797;-69
2023/06/18 05:08:31;;;;;;;7.82;4.03;;;25.90;45.20;;;;;;6219636;22;87297;-69
2023/06/18 05:10:57;;;;;;;6.40;3.80;;;26.50;44.40;;;;;;6218875;22;88206;-69
2023/06/18 05:13:22;;;;;;;6.20;3.88;;;26.60;44.30;;;;;;6219803;22;87238;-68
2023/06/18 05:15:48;;;;;;;9.88;3.65;;;27.20;43.00;;;;;;6219122;22;88085;-74
2023/06/18 05:18:14;;;;;;;6.10;3.70;;;27.40;42.00;;;;;;6216468;22;87562;-75
2023/06/18 05:20:39;;;;;;;5.07;3.42;;;27.70;41.90;;;;;;6217775;22;87293;-76
2023/06/18 05:23:05;;;;;;;6.93;4.00;;;28.40;41.90;;;;;;6219709;22;87275;-75
2023/06/18 05:25:33;;;;;;;5.40;3.75;;;28.90;40.60;;;;;;6219259;22;87605;-76
2023/06/18 05:27:59;;;;;;;7.88;3.95;;;29.40;39.80;;;;;;6220101;22;87261;-72
2023/06/18 05:30:24;;;;;;;7.00;3.85;;;29.80;39.40;;;;;;6218582;22;87117;-73
2023/06/18 05:32:50;;;;;;;7.85;3.97;;;30.30;37.90;;;;;;6220223;22;87360;-73
2023/06/18 05:35:16;;;;;;;6.38;3.97;;;30.50;37.90;;;;;;6217310;22;89056;-73
2023/06/18 05:37:41;;;;;;;6.88;3.85;;;31.20;37.50;;;;;;6219100;22;88427;-72
2023/06/18 05:40:08;;;;;;;5.43;4.75;;;31.50;38.00;;;;;;6219064;22;87347;-73
2023/06/18 05:42:33;;;;;;;4.00;3.35;;;32.20;37.20;;;;;;6220292;22;87473;-73
2023/06/18 05:44:59;;;;;;;5.95;4.78;;;32.60;36.70;;;;;;6218503;22;88637;-76
2023/06/18 05:47:25;;;;;;;6.05;4.60;;;32.60;35.90;;;;;;6219563;22;87691;-73
2023/06/18 05:49:50;;;;;;;6.05;4.88;;;32.70;36.30;;;;;;6218668;22;87407;-73
2023/06/18 05:52:16;;;;;;;8.43;4.60;;;32.70;36.30;;;;;;6220455;22;86586;-73
2023/06/18 05:54:41;;;;;;;6.65;4.03;;;32.90;35.60;;;;;;6219013;22;88218;-73
2023/06/18 05:57:07;;;;;;;6.07;4.32;;;33.40;36.10;;;;;;6219195;22;87274;-73
2023/06/18 05:59:33;;;;;;;6.57;4.97;;;33.90;35.00;;;;;;6218768;22;87995;-72
2023/06/18 06:01:58;;;;;;;5.57;4.50;;;34.00;35.10;;;;;;6219619;22;87377;-74
2023/06/18 06:04:24;;;;;;;13.45;5.00;;;34.50;35.50;;;;;;6217276;22;87486;-73
2023/06/18 06:06:50;;;;;;;11.07;5.88;;;34.90;36.60;;;;;;6218676;22;87925;-74
2023/06/18 06:09:16;;;;;;;7.25;5.65;;;35.30;36.70;;;;;;6218066;22;87319;-74
2023/06/18 06:11:41;;;;;;;8.80;5.68;;;35.40;36.60;;;;;;6219978;22;87305;-73
2023/06/18 06:14:07;;;;;;;8.38;5.63;;;35.20;36.80;;;;;;6218762;22;87665;-75
2023/06/18 06:16:33;;;;;;;7.97;6.03;;;35.60;36.40;;;;;;6215420;22;87804;-76
2023/06/18 06:18:58;;;;;;;6.82;5.72;;;36.00;36.50;;;;;;6215456;22;87249;-73
2023/06/18 06:21:24;;;;;;;7.93;6.47;;;36.20;36.30;;;;;;6216475;22;88335;-75
2023/06/18 06:23:50;;;;;;;8.52;5.93;;;36.30;36.70;;;;;;6212996;22;89056;-72
2023/06/18 06:26:15;;;;;;;11.13;5.85;;;36.70;35.70;;;;;;6214854;22;88765;-74
2023/06/18 06:28:41;;;;;;;9.10;6.22;;;37.30;34.90;;;;;;6218147;22;87334;-73
2023/06/18 06:31:07;;;;;;;7.97;6.22;;;37.50;35.00;;;;;;6218614;22;87292;-73
2023/06/18 06:33:32;;;;;;;7.88;5.93;;;37.10;36.20;;;;;;6215254;22;89129;-72
2023/06/18 06:35:58;;;;;;;10.30;6.88;;;36.80;35.70;;;;;;6214781;22;87337;-74
2023/06/18 06:38:24;;;;;;;7.97;6.38;;;37.60;35.50;;;;;;6214738;22;87506;-72
2023/06/18 06:40:50;;;;;;;7.30;5.90;;;38.10;34.30;;;;;;6217313;22;86557;-73
2023/06/18 06:43:15;;;;;;;10.65;7.45;;;38.40;35.50;;;;;;6215414;22;88104;-72
2023/06/18 06:45:41;;;;;;;10.25;6.47;;;39.00;33.80;;;;;;6217024;22;87838;-73
2023/06/18 06:48:07;;;;;;;11.02;7.10;;;39.10;34.40;;;;;;6214581;22;88203;-73
2023/06/18 06:50:32;;;;;;;9.18;6.85;;;39.50;33.50;;;;;;6212330;22;87588;-73
2023/06/18 06:52:58;;;;;;;10.05;7.43;;;39.90;33.80;;;;;;6214904;22;87602;-73
2023/06/18 06:55:24;;;;;;;7.90;7.10;;;40.20;33.50;;;;;;6213387;22;88608;-73
2023/06/18 06:57:49;;;;;;;8.18;7.15;;;40.10;33.90;;;;;;6215919;22;87358;-74
2023/06/18 07:00:16;;;;;;;11.30;7.25;;;40.20;33.80;;;;;;6215696;22;87327;-77
2023/06/18 07:02:41;;;;;;;9.43;7.45;;;40.60;32.80;;;;;;6212990;22;88521;-75
2023/06/18 07:05:08;;;;;;;9.90;6.40;;;40.60;34.10;;;;;;6216612;22;87776;-74
2023/06/18 07:07:35;;;;;;;9.32;6.50;;;41.10;32.60;;;;;;6216315;22;87270;-72
2023/06/18 07:10:02;;;;;;;9.68;7.65;;;41.20;31.20;;;;;;6215715;22;87275;-73
2023/06/18 07:12:27;;;;;;;8.10;7.30;;;41.60;31.70;;;;;;6216068;22;89450;-72
2023/06/18 07:14:53;;;;;;;8.00;7.22;;;41.80;32.30;;;;;;6214483;22;87528;-74
2023/06/18 07:17:19;;;;;;;8.57;7.55;;;41.80;31.60;;;;;;6214751;22;87929;-74
2023/06/18 07:19:44;;;;;;;12.38;7.35;;;42.00;32.20;;;;;;6217629;22;86997;-71
2023/06/18 07:22:10;;;;;;;8.52;7.72;;;41.60;32.50;;;;;;6216456;22;88004;-73
2023/06/18 07:24:36;;;;;;;9.32;8.38;;;41.60;32.60;;;;;;6218633;22;88343;-73
2023/06/18 07:27:02;;;;;;;12.02;5.57;;;41.10;33.20;;;;;;6219225;22;87405;-72
2023/06/18 07:29:27;;;;;;;8.73;7.35;;;41.10;33.70;;;;;;6219788;22;86362;-73
2023/06/18 07:31:53;;;;;;;9.30;7.40;;;41.90;32.10;;;;;;6218960;22;87728;-74
2023/06/18 07:34:19;;;;;;;8.80;7.90;;;42.40;32.40;;;;;;6218642;22;87368;-73
2023/06/18 07:36:44;;;;;;;9.52;8.20;;;42.40;32.20;;;;;;6218216;22;88175;-73
2023/06/18 07:39:10;;;;;;;10.20;6.78;;;42.50;31.40;;;;;;6218802;22;87198;-74
2023/06/18 07:41:36;;;;;;;7.40;6.70;;;42.50;32.00;;;;;;6218833;22;87746;-73
2023/06/18 07:44:01;;;;;;;9.50;7.78;;;42.30;32.30;;;;;;6218384;22;87875;-73
2023/06/18 07:46:27;;;;;;;9.38;8.38;;;42.90;31.50;;;;;;6218968;22;87025;-73
2023/06/18 07:48:53;;;;;;;10.68;9.57;;;42.90;31.60;;;;;;6219399;22;87242;-73
2023/06/18 07:51:19;;;;;;;9.05;8.25;;;43.20;31.70;;;;;;6218338;22;87838;-73
2023/06/18 07:53:45;;;;;;;8.52;7.70;;;43.10;31.90;;;;;;6218776;22;87260;-73
2023/06/18 07:56:11;;;;;;;12.77;8.73;;;43.20;32.10;;;;;;6218911;22;87056;-75
2023/06/18 07:58:37;;;;;;;10.43;8.65;;;43.40;31.70;;;;;;6218823;22;87276;-71
2023/06/18 08:01:02;;;;;;;10.90;7.75;;;43.70;31.90;;;;;;6217702;22;88611;-73
2023/06/18 08:03:28;;;;;;;12.13;8.82;;;43.80;32.50;;;;;;6191399;22;90022;-73
2023/06/18 08:05:54;;;;;;;14.95;10.10;;;43.80;31.20;;;;;;6218888;22;87388;-73
2023/06/18 08:08:20;;;;;;;13.85;9.43;;;44.20;30.60;;;;;;6218214;22;87777;-74
2023/06/18 08:10:45;;;;;;;10.90;9.80;;;44.50;31.50;;;;;;6218381;22;87573;-73
2023/06/18 08:13:11;;;;;;;9.77;8.77;;;44.40;30.90;;;;;;6218469;22;87797;-74
2023/06/18 08:15:37;;;;;;;9.38;8.27;;;43.70;30.80;;;;;;6219821;22;87293;-72
2023/06/18 08:18:02;;;;;;;11.10;10.00;;;43.60;31.40;;;;;;6220072;22;86761;-73
2023/06/18 08:20:28;;;;;;;11.32;9.18;;;44.10;31.20;;;;;;6218845;22;87345;-74
2023/06/18 08:22:54;;;;;;;10.60;9.63;;;44.50;30.50;;;;;;6219462;22;87262;-73
2023/06/18 08:25:20;;;;;;;10.25;9.25;;;45.10;30.20;;;;;;6219250;22;88452;-73
2023/06/18 08:27:46;;;;;;;10.63;9.10;;;45.50;29.10;;;;;;6220239;22;87439;-73
2023/06/18 08:30:11;;;;;;;10.73;9.65;;;45.20;29.10;;;;;;6219136;22;87522;-73
2023/06/18 08:32:40;;;;;;;12.93;9.77;;;45.10;29.30;;;;;;6219469;22;87869;-71
2023/06/18 08:35:06;;;;;;;9.65;8.60;;;44.90;29.80;;;;;;6220007;22;87386;-73
2023/06/18 08:37:32;;;;;;;11.40;10.30;;;45.20;30.80;;;;;;6219742;22;87154;-72
2023/06/18 08:39:57;;;;;;;10.20;9.18;;;45.60;29.90;;;;;;6218625;22;88709;-72
2023/06/18 08:42:23;;;;;;;11.05;9.90;;;45.70;29.60;;;;;;6219745;22;87717;-71
2023/06/18 08:44:50;;;;;;;9.57;8.68;;;45.60;29.50;;;;;;6220099;22;87680;-72
2023/06/18 08:47:17;;;;;;;9.77;8.88;;;45.60;29.70;;;;;;6219765;22;87333;-73
2023/06/18 08:49:45;;;;;;;14.07;9.98;;;46.00;29.70;;;;;;6219205;22;88637;-73
2023/06/18 08:52:12;;;;;;;11.82;10.70;;;45.60;29.10;;;;;;6218473;22;88046;-73
2023/06/18 08:54:38;;;;;;;6.88;6.10;;;45.40;30.00;;;;;;6219206;22;87213;-72
2023/06/18 08:57:16;;;;;;;11.25;8.05;;;45.80;29.10;;;;;;6220066;22;87461;-72
2023/06/18 08:59:42;;;;;;;11.30;10.32;;;46.20;29.50;;;;;;6219305;22;88134;-72
2023/06/18 09:02:11;;;;;;;11.32;10.25;;;46.40;28.90;;;;;;6218565;22;88306;-72
2023/06/18 09:04:38;;;;;;;12.43;10.30;;;46.60;29.40;;;;;;6218674;22;87330;-71
2023/06/18 09:07:06;;;;;;;12.02;10.63;;;46.20;28.30;;;;;;6219577;22;86726;-73
2023/06/18 09:09:32;;;;;;;9.88;8.88;;;46.40;29.20;;;;;;6218620;22;88020;-73
2023/06/18 09:11:59;;;;;;;12.85;10.50;;;46.70;29.20;;;;;;6219197;22;87827;-73
2023/06/18 09:14:25;;;;;;;12.02;10.90;;;46.30;29.00;;;;;;6218370;22;88236;-73
2023/06/18 09:16:52;;;;;;;10.68;9.68;;;47.00;28.70;;;;;;6218297;22;87303;-75
2023/06/18 09:19:20;;;;;;;10.02;9.13;;;47.00;28.60;;;;;;6191922;22;91364;-73
2023/06/18 09:21:46;;;;;;;7.50;6.63;;;47.10;29.20;;;;;;6219433;22;88227;-74
2023/06/18 09:24:20;;;;;;;12.95;10.82;;;46.50;28.30;;;;;;6219422;22;87266;-73
2023/06/18 09:27:07;;;;;;;12.98;10.20;;;46.20;28.50;;;;;;6219112;22;87349;-71
2023/06/18 09:29:34;;;;;;;14.80;10.95;;;46.30;29.70;;;;;;6218228;22;88024;-74
2023/06/18 09:32:07;;;;;;;11.07;10.07;;;46.50;29.10;;;;;;6218749;22;87777;-73
2023/06/18 09:34:32;;;;;;;11.52;10.52;;;46.70;28.90;;;;;;6218579;22;87309;-72
2023/06/18 09:36:58;;;;;;;12.57;9.63;;;46.90;30.00;;;;;;6219254;22;87383;-72
2023/06/18 09:39:25;;;;;;;9.73;8.35;;;46.70;29.10;;;;;;6191564;22;90564;-72
2023/06/18 09:41:53;;;;;;;10.75;9.73;;;46.40;28.70;;;;;;6219149;22;88655;-72
2023/06/18 09:44:20;;;;;;;11.23;10.10;;;46.20;29.80;;;;;;6219666;22;87451;-73
2023/06/18 09:46:48;;;;;;;12.15;9.57;;;46.10;29.60;;;;;;6218774;22;87217;-74
2023/06/18 09:49:17;;;;;;;11.20;10.13;;;46.00;29.90;;;;;;6219702;22;87899;-72
2023/06/18 09:51:44;;;;;;;10.10;9.15;;;46.20;29.40;;;;;;6218150;22;87229;-72
2023/06/18 09:54:10;;;;;;;10.05;9.18;;;45.80;29.90;;;;;;6191958;22;87355;-72
2023/06/18 09:56:38;;;;;;;10.15;9.13;;;45.00;29.90;;;;;;6220155;22;86560;-73
2023/06/18 09:59:04;;;;;;;7.72;6.65;;;44.60;31.90;;;;;;6218642;22;87840;-72
2023/06/18 10:01:50;;;;;;;9.02;8.13;;;44.10;31.00;;;;;;6219424;22;87367;-72
2023/06/18 10:04:17;;;;;;;8.68;7.88;;;43.40;30.80;;;;;;6218536;22;87923;-71
2023/06/18 10:06:51;;;;;;;9.65;6.50;;;42.30;32.50;;;;;;6219706;22;87390;-70
2023/06/18 10:09:18;;;;;;;8.85;6.50;;;40.90;32.30;;;;;;6191653;22;88812;-70
2023/06/18 10:11:46;;;;;;;9.80;6.70;;;39.50;34.70;;;;;;6218944;22;87711;-73
2023/06/18 10:14:13;;;;;;;7.88;6.38;;;38.70;33.40;;;;;;6219071;22;87063;-70
2023/06/18 10:16:47;;;;;;;9.35;5.32;;;38.00;35.10;;;;;;6219151;22;87551;-71
2023/06/18 10:19:27;;;;;;;14.57;6.20;;;37.40;37.00;;;;;;6218518;22;86931;-70
2023/06/18 10:21:59;;;;;;;10.27;6.30;;;36.60;36.60;;;;;;6192551;22;90624;-71
2023/06/18 10:24:42;;;;;;;9.88;5.90;;;36.00;37.30;;;;;;6218673;22;87486;-72
2023/06/18 10:27:08;;;;;;;10.07;5.97;;;35.40;40.20;;;;;;6219629;22;87360;-71
2023/06/18 10:29:34;;;;;;;5.53;4.85;;;35.10;40.10;;;;;;6218212;22;89004;-72
2023/06/18 10:32:04;;;;;;;8.48;4.78;;;34.60;37.10;;;;;;6218920;22;87224;-71
2023/06/18 10:34:31;;;;;;;7.40;5.38;;;34.40;37.30;;;;;;6218853;22;87402;-70
2023/06/18 10:36:59;;;;;;;8.25;4.30;;;34.30;39.50;;;;;;6219648;22;87314;-70
2023/06/18 10:39:25;;;;;;;7.35;3.90;;;34.00;35.90;;;;;;6218684;22;88325;-70
2023/06/18 10:41:54;;;;;;;5.00;4.13;;;33.90;34.70;;;;;;6219236;22;88068;-70
2023/06/18 10:44:48;;;;;;;8.07;4.28;;;34.00;36.10;;;;;;6219357;22;87232;-71
2023/06/18 10:47:22;;;;;;;7.70;4.38;;;34.10;36.20;;;;;;6220156;22;86487;-70
2023/06/18 10:50:00;;;;;;;8.80;4.40;;;34.10;37.20;;;;;;6218628;22;88548;-71
2023/06/18 10:52:29;;;;;;;4.20;3.80;;;33.90;38.90;;;;;;6219170;22;87763;-71
2023/06/18 10:54:55;;;;;;;7.00;4.05;;;33.90;37.80;;;;;;6218512;22;88020;-70
2023/06/18 10:57:28;;;;;;;8.57;4.07;;;33.60;37.70;;;;;;6219606;22;87253;-70
2023/06/18 10:59:56;;;;;;;7.60;4.35;;;33.50;39.50;;;;;;6218327;22;88061;-71
2023/06/18 11:02:37;;;;;;;7.53;3.90;;;33.40;38.40;;;;;;6218880;22;87292;-70
2023/06/18 11:05:03;;;;;;;5.32;4.13;;;33.40;39.10;;;;;;6219105;22;87420;-72
2023/06/18 11:07:30;;;;;;;4.60;2.92;;;33.40;36.90;;;;;;6219545;22;87505;-70
2023/06/18 11:10:01;;;;;;;8.05;4.03;;;33.30;37.60;;;;;;6218903;22;87533;-71
2023/06/18 11:12:29;;;;;;;8.10;4.82;;;33.30;37.80;;;;;;6219563;22;87600;-71
2023/06/18 11:15:17;;;;;;;6.63;3.80;;;33.40;37.00;;;;;;6219082;22;87396;-71
2023/06/18 11:17:43;;;;;;;;;;;33.30;35.60;;;;;;6219771;22;87033;-71
2023/06/18 11:20:11;;;;;;;4.95;3.63;;;33.10;37.00;;;;;;6219374;22;89209;-70
2023/06/18 11:22:37;;;;;;;6.82;4.07;;;33.20;35.60;;;;;;6218514;22;89227;-73
2023/06/18 11:25:06;;;;;;;6.78;4.35;;;33.10;36.00;;;;;;6218884;22;87532;-73
2023/06/18 11:27:33;;;;;;;3.90;2.70;;;33.00;37.00;;;;;;6219071;22;87249;-74
2023/06/18 11:29:59;;;;;;;5.53;3.10;;;33.00;39.40;;;;;;6218693;22;87556;-70
2023/06/18 11:32:25;;;;;;;8.90;3.78;;;33.00;37.00;;;;;;6218051;22;87312;-72
2023/06/18 11:34:53;;;;;;;5.45;4.00;;;32.80;39.20;;;;;;6218606;22;87264;-73
2023/06/18 11:37:18;;;;;;;6.13;3.92;;;32.70;37.80;;;;;;6219615;22;86271;-71
2023/06/18 11:39:44;;;;;;;5.15;3.88;;;32.80;37.70;;;;;;6218633;22;87403;-71
2023/06/18 11:42:20;;;;;;;5.60;3.85;;;32.80;38.50;;;;;;6219225;22;87285;-71
2023/06/18 11:44:54;;;;;;;5.22;4.05;;;32.70;37.30;;;;;;6218350;22;88347;-72
2023/06/18 11:47:20;;;;;;;5.22;3.42;;;32.90;39.00;;;;;;6218845;22;87371;-71
2023/06/18 11:49:47;;;;;;;7.88;3.75;;;33.10;38.80;;;;;;6218111;22;88146;-70
2023/06/18 11:52:19;;;;;;;7.45;4.05;;;33.30;36.90;;;;;;6218802;22;88180;-71
2023/06/18 11:54:45;;;;;;;4.90;3.22;;;33.40;37.70;;;;;;6218552;22;86996;-72
2023/06/18 11:57:12;;;;;;;9.55;3.80;;;33.40;38.00;;;;;;6219274;22;87829;-72
2023/06/18 11:59:42;;;;;;;6.90;4.15;;;33.30;37.90;;;;;;6218197;22;87996;-72
2023/06/18 12:02:25;;;;;;;6.70;4.07;;;33.20;37.50;;;;;;6219054;22;87211;-71
2023/06/18 12:04:51;;;;;;;6.55;3.67;;;33.40;38.30;;;;;;6218257;22;87358;-73
2023/06/18 12:07:24;;;;;;;8.02;4.15;;;33.50;36.50;;;;;;6219133;22;87575;-73
2023/06/18 12:09:53;;;;;;;6.55;3.65;;;33.60;36.30;;;;;;6217757;22;89082;-74
2023/06/18 12:12:48;;;;;;;4.82;3.28;;;33.70;37.90;;;;;;6218261;22;88199;-73
2023/06/18 12:15:31;;;;;;;7.07;3.50;;;33.90;37.80;;;;;;6191338;22;87158;-72
2023/06/18 12:18:06;;;;;;;4.95;3.60;;;34.20;35.30;;;;;;6218542;22;87399;-71
2023/06/18 12:20:34;;;;;;;6.55;3.95;;;34.10;34.90;;;;;;6217980;22;87730;-73
2023/06/18 12:23:01;;;;;;;4.45;3.92;;;34.30;33.10;;;;;;6218227;22;87250;-71
2023/06/18 12:25:28;;;;;;;4.18;3.47;;;34.30;32.60;;;;;;6218391;22;87297;-71
2023/06/18 12:27:56;;;;;;;7.03;3.67;;;34.20;33.30;;;;;;6219373;22;86989;-72
2023/06/18 12:30:51;;;;;;;6.57;4.35;;;34.00;34.90;;;;;;6218063;22;87660;-72
2023/06/18 12:33:18;;;;;;;7.07;4.05;;;33.90;35.40;;;;;;6214916;22;87816;-71
2023/06/18 12:35:56;;;;;;;5.45;3.38;;;33.80;33.70;;;;;;6217480;22;88589;-72
2023/06/18 12:38:22;;;;;;;5.13;3.80;;;33.50;32.90;;;;;;6219122;22;87301;-73
2023/06/18 12:41:00;;;;;;;5.38;3.33;;;33.40;35.60;;;;;;6217986;22;87613;-71
2023/06/18 12:43:26;;;;;;;7.07;3.50;;;33.40;35.20;;;;;;6217948;22;87790;-71
2023/06/18 12:45:52;;;;;;;6.20;2.90;;;33.40;36.20;;;;;;6218405;22;87328;-72
2023/06/18 12:48:28;;;;;;;7.20;3.97;;;33.50;36.10;;;;;;6218826;22;87342;-71
2023/06/18 12:50:55;;;;;;;8.43;4.15;;;33.60;35.80;;;;;;6217927;22;87924;-72
2023/06/18 12:53:27;;;;;;;5.55;4.20;;;33.90;35.40;;;;;;6218874;22;87707;-72
2023/06/18 12:55:57;;;;;;;6.88;4.32;;;33.70;36.60;;;;;;6217676;22;87378;-73
2023/06/18 12:58:27;;;;;;;6.68;3.65;;;34.00;34.70;;;;;;6218438;22;86999;-72
2023/06/18 13:00:55;;;;;;;5.93;4.05;;;34.10;35.70;;;;;;6217996;22;88852;-72
2023/06/18 13:03:22;;;;;;;5.75;4.20;;;34.00;34.70;;;;;;6219581;22;89286;-73
2023/06/18 13:05:49;;;;;;;10.73;4.65;;;34.10;36.50;;;;;;6219713;22;87485;-73
2023/06/18 13:08:17;;;;;;;4.18;3.38;;;34.00;36.20;;;;;;6220016;22;87284;-74
2023/06/18 13:10:50;;;;;;;4.85;3.83;;;34.00;36.60;;;;;;6219241;22;88260;-73
2023/06/18 13:13:17;;;;;;;6.07;3.67;;;33.90;36.90;;;;;;6219385;22;87705;-73
2023/06/18 13:15:44;;;;;;;7.18;4.15;;;33.90;37.30;;;;;;6219798;22;87060;-72
2023/06/18 13:18:11;;;;;;;5.38;3.72;;;34.40;38.00;;;;;;6219189;22;86334;-73
2023/06/18 13:20:37;;;;;;;7.30;3.90;;;34.70;35.60;;;;;;6219321;22;88393;-72
2023/06/18 13:23:04;;;;;;;4.75;3.92;;;34.90;33.80;;;;;;6219264;22;87760;-74
2023/06/18 13:25:30;;;;;;;5.38;3.72;;;34.70;34.70;;;;;;6219074;22;87960;-72
2023/06/18 13:27:56;;;;;;;4.43;3.67;;;34.40;35.30;;;;;;6219645;22;87033;-72
2023/06/18 13:30:21;;;;;;;4.65;3.58;;;34.20;35.70;;;;;;6219042;22;87948;-71
2023/06/18 13:32:47;;;;;;;10.77;3.92;;;34.20;36.20;;;;;;6219242;22;87545;-73
2023/06/18 13:35:13;;;;;;;5.05;3.00;;;34.00;35.30;;;;;;6219262;22;87331;-74
2023/06/18 13:37:39;;;;;;;4.30;3.85;;;33.70;35.20;;;;;;6219890;22;87522;-71
2023/06/18 13:40:05;;;;;;;5.10;3.85;;;33.60;35.20;;;;;;6219356;22;88116;-72
2023/06/18 13:42:31;;;;;;;10.30;5.15;;;33.70;35.70;;;;;;6219524;22;87104;-73
2023/06/18 13:44:59;;;;;;;4.47;3.00;;;33.80;35.80;;;;;;6219907;22;87168;-73
2023/06/18 13:47:25;;;;;;;8.23;3.65;;;33.80;36.40;;;;;;6219003;22;87363;-71
2023/06/18 13:49:53;;;;;;;5.93;4.05;;;33.90;35.90;;;;;;6218871;22;89256;-73
2023/06/18 13:52:19;;;;;;;5.95;3.90;;;34.00;35.20;;;;;;6218695;22;88148;-72
2023/06/18 13:54:45;;;;;;;5.53;3.60;;;34.20;35.80;;;;;;6220120;22;87465;-72
2023/06/18 13:57:11;;;;;;;6.72;3.35;;;34.10;34.70;;;;;;6219428;22;87675;-72
2023/06/18 13:59:37;;;;;;;6.18;4.00;;;33.80;34.70;;;;;;6219338;22;87364;-72
2023/06/18 14:02:03;;;;;;;6.75;4.18;;;33.60;35.30;;;;;;6219282;22;88208;-74
2023/06/18 14:04:29;;;;;;;5.78;3.83;;;33.40;35.00;;;;;;6218822;22;87499;-75
2023/06/18 14:06:54;;;;;;;6.43;3.75;;;33.40;36.10;;;;;;6220273;22;86654;-73
2023/06/18 14:09:20;;;;;;;4.90;3.55;;;33.30;35.80;;;;;;6218943;22;87527;-71
2023/06/18 14:11:46;;;;;;;6.55;3.95;;;33.30;36.00;;;;;;6218972;22;87314;-73
2023/06/18 14:14:12;;;;;;;4.88;3.65;;;33.60;35.10;;;;;;6219081;22;88256;-74
2023/06/18 14:16:39;;;;;;;5.53;3.78;;;33.90;34.80;;;;;;6219540;22;87744;-71
2023/06/18 14:19:05;;;;;;;5.13;3.58;;;34.20;34.70;;;;;;6219069;22;87662;-74
2023/06/18 14:21:30;;;;;;;5.80;4.25;;;34.40;36.70;;;;;;6219209;22;87350;-72
2023/06/18 14:23:57;;;;;;;4.63;3.70;;;34.40;34.40;;;;;;6219213;22;87232;-71
2023/06/18 14:26:23;;;;;;;4.70;3.40;;;34.50;33.90;;;;;;6219191;22;87278;-72
2023/06/18 14:28:49;;;;;;;4.60;2.55;;;34.30;33.20;;;;;;6219437;22;87533;-72
2023/06/18 14:31:15;;;;;;;9.98;2.88;;;34.00;32.90;;;;;;6219530;22;87931;-72
2023/06/18 14:33:40;;;;;;;4.32;3.17;;;33.80;33.50;;;;;;6219139;22;87578;-72
2023/06/18 14:36:09;;;;;;;6.38;4.10;;;33.90;37.40;;;;;;6219703;22;87027;-71
2023/06/18 14:38:35;;;;;;;6.80;4.07;;;33.80;34.40;;;;;;6218151;22;88633;-73
2023/06/18 14:41:00;;;;;;;7.00;3.72;;;33.70;34.30;;;;;;6219117;22;88616;-71
2023/06/18 14:43:26;;;;;;;6.65;4.05;;;33.50;36.40;;;;;;6218685;22;87213;-72
2023/06/18 14:45:52;;;;;;;7.88;4.00;;;33.30;33.70;;;;;;6219813;22;87249;-71
2023/06/18 14:48:17;;;;;;;6.90;3.95;;;33.00;35.50;;;;;;6218432;22;87553;-71
2023/06/18 14:50:44;;;;;;;5.55;3.47;;;33.00;35.20;;;;;;6219554;22;87255;-70
2023/06/18 14:53:11;;;;;;;6.60;3.95;;;33.00;37.00;;;;;;6219618;22;87296;-72
2023/06/18 14:55:37;;;;;;;6.43;3.65;;;33.00;35.70;;;;;;6220110;22;86595;-71
2023/06/18 14:58:03;;;;;;;5.65;3.28;;;33.00;36.40;;;;;;6218593;22;88364;-72
2023/06/18 15:00:28;;;;;;;9.30;3.03;;;32.90;36.10;;;;;;6218813;22;87817;-72
2023/06/18 15:02:54;;;;;;;8.88;3.65;;;32.90;36.80;;;;;;6218671;22;88175;-71
2023/06/18 15:05:20;;;;;;;7.55;4.65;;;32.90;36.60;;;;;;6219310;22;87288;-73
2023/06/18 15:07:45;;;;;;;5.78;4.22;;;32.70;36.70;;;;;;6219349;22;87558;-72
2023/06/18 15:10:11;;;;;;;6.30;3.50;;;32.80;37.30;;;;;;6219022;22;87333;-72
2023/06/18 15:12:39;;;;;;;6.25;3.95;;;32.60;36.00;;;;;;6219024;22;87284;-72
2023/06/18 15:15:05;;;;;;;6.90;3.75;;;32.70;38.10;;;;;;6219097;22;87393;-75
2023/06/18 15:17:31;;;;;;;7.57;4.05;;;32.50;36.70;;;;;;6218351;22;87965;-72
2023/06/18 15:19:57;;;;;;;7.68;3.30;;;32.30;36.40;;;;;;6219479;22;87239;-71
2023/06/18 15:22:26;;;;;;;8.95;4.55;;;32.30;36.60;;;;;;6217984;22;87095;-72
2023/06/18 15:24:53;;;;;;;17.25;8.82;;;32.40;37.50;;;;;;6219320;22;87548;-72
2023/06/18 15:27:19;;;;;;;7.68;3.75;;;32.40;38.60;;;;;;6218096;22;88766;-71
2023/06/18 15:29:45;;;;;;;16.80;10.50;;;32.40;38.00;;;;;;6218685;22;88165;-71
2023/06/18 15:32:11;;;;;;;4.63;3.25;;;32.50;38.10;;;;;;6218697;22;87269;-70
2023/06/18 15:34:39;;;;;;;7.90;3.75;;;32.50;35.80;;;;;;6218477;22;87440;-72
2023/06/18 15:37:06;;;;;;;4.72;3.25;;;32.30;37.30;;;;;;6219132;22;88100;-74
2023/06/18 15:39:33;;;;;;;5.10;3.15;;;32.20;36.90;;;;;;6218454;22;87766;-73
2023/06/18 15:41:58;;;;;;;4.57;2.85;;;32.20;38.50;;;;;;6219245;22;87117;-71
2023/06/18 15:44:24;;;;;;;6.40;3.55;;;32.20;39.70;;;;;;6219394;22;86904;-71
2023/06/18 15:46:49;;;;;;;5.82;3.80;;;32.10;37.70;;;;;;6218723;22;88246;-71
2023/06/18 15:49:17;;;;;;;3.88;3.10;;;32.00;38.30;;;;;;6218691;22;88455;-73
2023/06/18 15:51:43;;;;;;;4.45;3.35;;;31.90;38.10;;;;;;6218225;22;88248;-73
2023/06/18 15:54:09;;;;;;;4.50;3.50;;;31.70;37.80;;;;;;6219277;22;87708;-72
2023/06/18 15:56:35;;;;;;;4.45;3.65;;;31.70;38.80;;;;;;6218438;22;87466;-73
2023/06/18 15:59:01;;;;;;;6.18;4.18;;;31.60;37.60;;;;;;6218657;22;87906;-72
2023/06/18 16:01:26;;;;;;;5.13;3.53;;;31.60;37.80;;;;;;6218705;22;87471;-72